sensor_id;sensor_type;location;lat;lon;timestamp;temperature;humidity
51867;DHT22;52862;52.504;13.480;2023-05-23T00:02:24;19.30;80.30
51867;DHT22;52862;52.504;13.480;2023-05-23T00:04:51;19.20;80.90
51867;DHT22;52862;52.504;13.480;2023-05-23T00:07:23;19.20;81.10
51867;DHT22;52862;52.504;13.480;2023-05-23T00:09:50;19.20;80.40
51867;DHT22;52862;52.504;13.480;2023-05-23T00:12:16;19.20;81.30
51867;DHT22;52862;52.504;13.480;2023-05-23T00:14:45;19.10;81.10
51867;DHT22;52862;52.504;13.480;2023-05-23T00:17:21;19.00;81.60
51867;DHT22;52862;52.504;13.480;2023-05-23T00:19:50;19.00;81.10
51867;DHT22;52862;52.504;13.480;2023-05-23T00:22:17;19.10;81.90
51867;DHT22;52862;52.504;13.480;2023-05-23T00:24:44;19.10;81.30
51867;DHT22;52862;52.504;13.480;2023-05-23T00:27:11;19.00;81.90
51867;DHT22;52862;52.504;13.480;2023-05-23T00:29:38;19.10;81.70
51867;DHT22;52862;52.504;13.480;2023-05-23T00:32:05;19.20;81.70
51867;DHT22;52862;52.504;13.480;2023-05-23T00:34:32;19.10;82.30
51867;DHT22;52862;52.504;13.480;2023-05-23T00:36:59;19.00;82.00
51867;DHT22;52862;52.504;13.480;2023-05-23T00:39:27;19.00;82.20
51867;DHT22;52862;52.504;13.480;2023-05-23T00:41:54;19.00;82.00
51867;DHT22;52862;52.504;13.480;2023-05-23T00:44:21;19.00;82.50
51867;DHT22;52862;52.504;13.480;2023-05-23T00:46:50;18.90;82.40
51867;DHT22;52862;52.504;13.480;2023-05-23T00:49:19;18.90;82.90
51867;DHT22;52862;52.504;13.480;2023-05-23T00:51:46;18.80;82.10
51867;DHT22;52862;52.504;13.480;2023-05-23T00:54:15;19.00;82.50
51867;DHT22;52862;52.504;13.480;2023-05-23T00:56:44;18.70;82.90
51867;DHT22;52862;52.504;13.480;2023-05-23T00:59:12;18.70;83.20
51867;DHT22;52862;52.504;13.480;2023-05-23T01:01:40;18.70;83.20
51867;DHT22;52862;52.504;13.480;2023-05-23T01:04:09;18.70;83.50
51867;DHT22;52862;52.504;13.480;2023-05-23T01:06:37;18.60;83.50
51867;DHT22;52862;52.504;13.480;2023-05-23T01:09:04;18.60;84.00
51867;DHT22;52862;52.504;13.480;2023-05-23T01:11:36;18.70;84.10
51867;DHT22;52862;52.504;13.480;2023-05-23T01:14:09;18.60;84.30
51867;DHT22;52862;52.504;13.480;2023-05-23T01:16:45;18.60;83.70
51867;DHT22;52862;52.504;13.480;2023-05-23T01:19:32;18.50;84.00
51867;DHT22;52862;52.504;13.480;2023-05-23T01:22:11;18.30;83.70
51867;DHT22;52862;52.504;13.480;2023-05-23T01:24:49;18.50;84.10
51867;DHT22;52862;52.504;13.480;2023-05-23T01:27:23;18.70;83.60
51867;DHT22;52862;52.504;13.480;2023-05-23T01:29:57;18.50;84.10
51867;DHT22;52862;52.504;13.480;2023-05-23T01:32:28;18.50;83.80
51867;DHT22;52862;52.504;13.480;2023-05-23T01:34:55;18.60;83.60
51867;DHT22;52862;52.504;13.480;2023-05-23T01:37:22;18.60;83.60
51867;DHT22;52862;52.504;13.480;2023-05-23T01:39:49;18.70;84.30
51867;DHT22;52862;52.504;13.480;2023-05-23T01:42:16;18.50;83.80
51867;DHT22;52862;52.504;13.480;2023-05-23T01:44:44;18.50;84.40
51867;DHT22;52862;52.504;13.480;2023-05-23T01:47:12;18.50;83.90
51867;DHT22;52862;52.504;13.480;2023-05-23T01:49:41;18.30;84.30
51867;DHT22;52862;52.504;13.480;2023-05-23T01:52:10;18.30;84.70
51867;DHT22;52862;52.504;13.480;2023-05-23T01:54:38;18.50;84.90
51867;DHT22;52862;52.504;13.480;2023-05-23T01:57:07;18.60;85.00
51867;DHT22;52862;52.504;13.480;2023-05-23T01:59:34;18.40;84.80
51867;DHT22;52862;52.504;13.480;2023-05-23T02:02:02;18.70;85.20
51867;DHT22;52862;52.504;13.480;2023-05-23T02:04:30;18.50;85.20
51867;DHT22;52862;52.504;13.480;2023-05-23T02:06:56;18.50;85.00
51867;DHT22;52862;52.504;13.480;2023-05-23T02:09:23;18.50;84.80
51867;DHT22;52862;52.504;13.480;2023-05-23T02:11:50;20.20;86.10
51867;DHT22;52862;52.504;13.480;2023-05-23T02:14:16;18.50;85.30
51867;DHT22;52862;52.504;13.480;2023-05-23T02:16:43;18.50;85.70
51867;DHT22;52862;52.504;13.480;2023-05-23T02:19:10;18.40;85.50
51867;DHT22;52862;52.504;13.480;2023-05-23T02:21:38;18.30;85.90
51867;DHT22;52862;52.504;13.480;2023-05-23T02:24:04;18.30;85.80
51867;DHT22;52862;52.504;13.480;2023-05-23T02:26:31;18.20;85.90
51867;DHT22;52862;52.504;13.480;2023-05-23T02:28:58;18.20;86.00
51867;DHT22;52862;52.504;13.480;2023-05-23T02:31:25;18.30;86.20
51867;DHT22;52862;52.504;13.480;2023-05-23T02:33:52;18.30;86.60
51867;DHT22;52862;52.504;13.480;2023-05-23T02:36:19;18.20;86.30
51867;DHT22;52862;52.504;13.480;2023-05-23T02:38:47;18.20;86.90
51867;DHT22;52862;52.504;13.480;2023-05-23T02:41:13;18.20;86.60
51867;DHT22;52862;52.504;13.480;2023-05-23T02:43:40;18.10;86.70
51867;DHT22;52862;52.504;13.480;2023-05-23T02:46:07;18.20;86.70
51867;DHT22;52862;52.504;13.480;2023-05-23T02:48:34;18.20;86.90
51867;DHT22;52862;52.504;13.480;2023-05-23T02:51:00;18.20;87.10
51867;DHT22;52862;52.504;13.480;2023-05-23T02:53:27;18.30;86.70
51867;DHT22;52862;52.504;13.480;2023-05-23T02:55:54;18.30;87.10
51867;DHT22;52862;52.504;13.480;2023-05-23T02:58:21;18.30;87.80
51867;DHT22;52862;52.504;13.480;2023-05-23T03:00:49;18.30;87.10
51867;DHT22;52862;52.504;13.480;2023-05-23T03:03:15;18.20;86.90
51867;DHT22;52862;52.504;13.480;2023-05-23T03:05:42;18.20;87.10
51867;DHT22;52862;52.504;13.480;2023-05-23T03:08:09;18.20;87.50
51867;DHT22;52862;52.504;13.480;2023-05-23T03:10:36;18.30;87.20
51867;DHT22;52862;52.504;13.480;2023-05-23T03:13:04;18.30;87.40
51867;DHT22;52862;52.504;13.480;2023-05-23T03:15:31;18.40;87.00
51867;DHT22;52862;52.504;13.480;2023-05-23T03:17:58;18.30;87.30
51867;DHT22;52862;52.504;13.480;2023-05-23T03:20:25;18.20;88.30
51867;DHT22;52862;52.504;13.480;2023-05-23T03:22:52;18.00;87.50
51867;DHT22;52862;52.504;13.480;2023-05-23T03:25:19;17.90;88.30
51867;DHT22;52862;52.504;13.480;2023-05-23T03:27:45;18.10;88.70
51867;DHT22;52862;52.504;13.480;2023-05-23T03:30:13;18.10;87.90
51867;DHT22;52862;52.504;13.480;2023-05-23T03:32:39;18.20;89.20
51867;DHT22;52862;52.504;13.480;2023-05-23T03:35:07;18.10;88.60
51867;DHT22;52862;52.504;13.480;2023-05-23T03:37:34;18.10;88.90
51867;DHT22;52862;52.504;13.480;2023-05-23T03:40:00;18.10;90.00
51867;DHT22;52862;52.504;13.480;2023-05-23T03:42:27;18.00;90.10
51867;DHT22;52862;52.504;13.480;2023-05-23T03:44:54;18.10;90.20
51867;DHT22;52862;52.504;13.480;2023-05-23T03:47:21;18.10;90.60
51867;DHT22;52862;52.504;13.480;2023-05-23T03:49:49;18.10;90.50
51867;DHT22;52862;52.504;13.480;2023-05-23T03:52:15;18.10;90.60
51867;DHT22;52862;52.504;13.480;2023-05-23T03:54:42;18.10;90.80
51867;DHT22;52862;52.504;13.480;2023-05-23T03:57:09;18.10;90.40
51867;DHT22;52862;52.504;13.480;2023-05-23T03:59:35;18.10;90.40
51867;DHT22;52862;52.504;13.480;2023-05-23T04:02:02;18.10;90.20
51867;DHT22;52862;52.504;13.480;2023-05-23T04:04:29;18.20;90.60
51867;DHT22;52862;52.504;13.480;2023-05-23T04:06:57;18.10;90.00
51867;DHT22;52862;52.504;13.480;2023-05-23T04:09:24;18.10;90.10
51867;DHT22;52862;52.504;13.480;2023-05-23T04:11:51;18.10;90.40
51867;DHT22;52862;52.504;13.480;2023-05-23T04:14:18;18.10;90.20
51867;DHT22;52862;52.504;13.480;2023-05-23T04:16:47;18.00;90.20
51867;DHT22;52862;52.504;13.480;2023-05-23T04:19:14;18.10;90.20
51867;DHT22;52862;52.504;13.480;2023-05-23T04:21:41;18.10;90.20
51867;DHT22;52862;52.504;13.480;2023-05-23T04:24:08;18.10;90.00
51867;DHT22;52862;52.504;13.480;2023-05-23T04:26:35;18.20;89.80
51867;DHT22;52862;52.504;13.480;2023-05-23T04:29:03;18.10;89.90
51867;DHT22;52862;52.504;13.480;2023-05-23T04:31:30;18.20;90.40
51867;DHT22;52862;52.504;13.480;2023-05-23T04:33:59;18.10;90.30
51867;DHT22;52862;52.504;13.480;2023-05-23T04:36:25;17.90;90.60
51867;DHT22;52862;52.504;13.480;2023-05-23T04:38:53;17.90;90.90
51867;DHT22;52862;52.504;13.480;2023-05-23T04:41:20;18.20;91.10
51867;DHT22;52862;52.504;13.480;2023-05-23T04:43:48;18.10;91.10
51867;DHT22;52862;52.504;13.480;2023-05-23T04:46:19;18.10;91.60
51867;DHT22;52862;52.504;13.480;2023-05-23T04:48:51;18.00;92.20
51867;DHT22;52862;52.504;13.480;2023-05-23T04:51:18;18.20;92.00
51867;DHT22;52862;52.504;13.480;2023-05-23T04:53:46;18.20;92.20
51867;DHT22;52862;52.504;13.480;2023-05-23T04:56:14;18.20;92.60
51867;DHT22;52862;52.504;13.480;2023-05-23T04:58:42;18.10;91.90
51867;DHT22;52862;52.504;13.480;2023-05-23T05:01:10;18.20;92.20
51867;DHT22;52862;52.504;13.480;2023-05-23T05:03:37;18.10;92.50
51867;DHT22;52862;52.504;13.480;2023-05-23T05:06:04;18.00;93.10
51867;DHT22;52862;52.504;13.480;2023-05-23T05:08:31;18.00;93.40
51867;DHT22;52862;52.504;13.480;2023-05-23T05:10:58;18.10;92.20
51867;DHT22;52862;52.504;13.480;2023-05-23T05:13:25;17.90;92.80
51867;DHT22;52862;52.504;13.480;2023-05-23T05:15:52;17.90;92.80
51867;DHT22;52862;52.504;13.480;2023-05-23T05:18:19;17.90;92.40
51867;DHT22;52862;52.504;13.480;2023-05-23T05:20:46;17.90;92.30
51867;DHT22;52862;52.504;13.480;2023-05-23T05:23:12;18.00;92.20
51867;DHT22;52862;52.504;13.480;2023-05-23T05:25:39;17.90;92.60
51867;DHT22;52862;52.504;13.480;2023-05-23T05:28:07;17.90;93.50
51867;DHT22;52862;52.504;13.480;2023-05-23T05:30:34;17.80;93.80
51867;DHT22;52862;52.504;13.480;2023-05-23T05:33:01;17.70;94.60
51867;DHT22;52862;52.504;13.480;2023-05-23T05:35:30;17.80;95.00
51867;DHT22;52862;52.504;13.480;2023-05-23T05:37:57;17.80;94.80
51867;DHT22;52862;52.504;13.480;2023-05-23T05:40:24;17.80;95.20
51867;DHT22;52862;52.504;13.480;2023-05-23T05:42:51;17.70;94.50
51867;DHT22;52862;52.504;13.480;2023-05-23T05:45:17;17.70;95.10
51867;DHT22;52862;52.504;13.480;2023-05-23T05:47:45;17.50;95.10
51867;DHT22;52862;52.504;13.480;2023-05-23T05:50:11;17.60;95.60
51867;DHT22;52862;52.504;13.480;2023-05-23T05:52:38;17.60;96.60
51867;DHT22;52862;52.504;13.480;2023-05-23T05:55:06;17.60;95.70
51867;DHT22;52862;52.504;13.480;2023-05-23T05:57:33;17.60;94.50
51867;DHT22;52862;52.504;13.480;2023-05-23T06:00:00;17.70;95.40
51867;DHT22;52862;52.504;13.480;2023-05-23T06:02:26;17.90;94.80
51867;DHT22;52862;52.504;13.480;2023-05-23T06:04:54;18.00;95.90
51867;DHT22;52862;52.504;13.480;2023-05-23T06:07:21;17.90;96.20
51867;DHT22;52862;52.504;13.480;2023-05-23T06:09:48;18.10;95.70
51867;DHT22;52862;52.504;13.480;2023-05-23T06:12:15;18.00;96.00
51867;DHT22;52862;52.504;13.480;2023-05-23T06:14:42;18.00;96.60
51867;DHT22;52862;52.504;13.480;2023-05-23T06:17:09;18.00;96.50
51867;DHT22;52862;52.504;13.480;2023-05-23T06:19:35;18.00;97.20
51867;DHT22;52862;52.504;13.480;2023-05-23T06:22:04;18.00;97.00
51867;DHT22;52862;52.504;13.480;2023-05-23T06:24:31;18.10;97.00
51867;DHT22;52862;52.504;13.480;2023-05-23T06:26:58;18.10;97.40
51867;DHT22;52862;52.504;13.480;2023-05-23T06:29:24;18.10;96.90
51867;DHT22;52862;52.504;13.480;2023-05-23T06:31:51;18.10;96.00
51867;DHT22;52862;52.504;13.480;2023-05-23T06:34:18;18.20;95.90
51867;DHT22;52862;52.504;13.480;2023-05-23T06:36:45;18.40;95.90
51867;DHT22;52862;52.504;13.480;2023-05-23T06:39:14;18.20;95.60
51867;DHT22;52862;52.504;13.480;2023-05-23T06:41:42;18.20;95.50
51867;DHT22;52862;52.504;13.480;2023-05-23T06:44:08;18.40;95.80
51867;DHT22;52862;52.504;13.480;2023-05-23T06:46:35;18.50;96.30
51867;DHT22;52862;52.504;13.480;2023-05-23T06:49:06;18.70;96.20
51867;DHT22;52862;52.504;13.480;2023-05-23T06:51:40;18.80;95.50
51867;DHT22;52862;52.504;13.480;2023-05-23T06:54:07;19.10;94.80
51867;DHT22;52862;52.504;13.480;2023-05-23T06:56:34;19.30;94.70
51867;DHT22;52862;52.504;13.480;2023-05-23T06:59:01;19.40;94.40
51867;DHT22;52862;52.504;13.480;2023-05-23T07:01:28;19.50;94.40
51867;DHT22;52862;52.504;13.480;2023-05-23T07:03:54;19.80;94.10
51867;DHT22;52862;52.504;13.480;2023-05-23T07:06:21;20.20;94.10
51867;DHT22;52862;52.504;13.480;2023-05-23T07:08:48;20.40;93.70
51867;DHT22;52862;52.504;13.480;2023-05-23T07:11:15;20.40;93.80
51867;DHT22;52862;52.504;13.480;2023-05-23T07:13:42;20.20;92.10
51867;DHT22;52862;52.504;13.480;2023-05-23T07:16:08;19.70;92.50
51867;DHT22;52862;52.504;13.480;2023-05-23T07:18:35;19.30;93.30
51867;DHT22;52862;52.504;13.480;2023-05-23T07:21:04;19.20;93.70
51867;DHT22;52862;52.504;13.480;2023-05-23T07:23:32;19.30;93.70
51867;DHT22;52862;52.504;13.480;2023-05-23T07:25:59;19.60;93.00
51867;DHT22;52862;52.504;13.480;2023-05-23T07:28:28;19.90;93.00
51867;DHT22;52862;52.504;13.480;2023-05-23T07:30:56;19.80;92.50
51867;DHT22;52862;52.504;13.480;2023-05-23T07:33:23;19.80;93.00
51867;DHT22;52862;52.504;13.480;2023-05-23T07:35:50;19.60;93.00
51867;DHT22;52862;52.504;13.480;2023-05-23T07:38:17;19.90;93.30
51867;DHT22;52862;52.504;13.480;2023-05-23T07:40:43;20.10;92.10
51867;DHT22;52862;52.504;13.480;2023-05-23T07:43:21;20.30;91.60
51867;DHT22;52862;52.504;13.480;2023-05-23T07:45:47;20.60;90.70
51867;DHT22;52862;52.504;13.480;2023-05-23T07:48:15;20.80;90.20
51867;DHT22;52862;52.504;13.480;2023-05-23T07:50:41;21.00;89.00
51867;DHT22;52862;52.504;13.480;2023-05-23T07:53:08;21.20;87.70
51867;DHT22;52862;52.504;13.480;2023-05-23T07:55:35;21.10;88.00
51867;DHT22;52862;52.504;13.480;2023-05-23T07:58:02;20.90;88.30
51867;DHT22;52862;52.504;13.480;2023-05-23T08:00:29;20.40;89.80
51867;DHT22;52862;52.504;13.480;2023-05-23T08:02:56;20.60;90.30
51867;DHT22;52862;52.504;13.480;2023-05-23T08:05:23;20.80;89.90
51867;DHT22;52862;52.504;13.480;2023-05-23T08:07:50;21.00;89.00
51867;DHT22;52862;52.504;13.480;2023-05-23T08:10:19;20.70;90.10
51867;DHT22;52862;52.504;13.480;2023-05-23T08:12:45;20.80;89.90
51867;DHT22;52862;52.504;13.480;2023-05-23T08:15:12;20.80;88.70
51867;DHT22;52862;52.504;13.480;2023-05-23T08:17:39;20.60;89.00
51867;DHT22;52862;52.504;13.480;2023-05-23T08:20:06;20.30;90.00
51867;DHT22;52862;52.504;13.480;2023-05-23T08:22:35;20.00;90.50
51867;DHT22;52862;52.504;13.480;2023-05-23T08:25:02;20.30;90.70
51867;DHT22;52862;52.504;13.480;2023-05-23T08:27:29;20.40;90.50
51867;DHT22;52862;52.504;13.480;2023-05-23T08:29:56;20.70;90.20
51867;DHT22;52862;52.504;13.480;2023-05-23T08:32:23;20.90;90.30
51867;DHT22;52862;52.504;13.480;2023-05-23T08:34:50;21.10;89.70
51867;DHT22;52862;52.504;13.480;2023-05-23T08:37:16;21.40;89.70
51867;DHT22;52862;52.504;13.480;2023-05-23T08:39:44;21.60;88.50
51867;DHT22;52862;52.504;13.480;2023-05-23T08:42:11;21.50;88.30
51867;DHT22;52862;52.504;13.480;2023-05-23T08:44:38;21.20;88.80
51867;DHT22;52862;52.504;13.480;2023-05-23T08:47:07;21.30;89.80
51867;DHT22;52862;52.504;13.480;2023-05-23T08:49:36;21.10;90.30
51867;DHT22;52862;52.504;13.480;2023-05-23T08:52:03;20.90;90.70
51867;DHT22;52862;52.504;13.480;2023-05-23T08:54:30;20.70;91.00
51867;DHT22;52862;52.504;13.480;2023-05-23T08:56:58;20.80;91.10
51867;DHT22;52862;52.504;13.480;2023-05-23T08:59:26;20.70;91.60
51867;DHT22;52862;52.504;13.480;2023-05-23T09:01:54;20.70;91.60
51867;DHT22;52862;52.504;13.480;2023-05-23T09:04:22;20.70;91.60
51867;DHT22;52862;52.504;13.480;2023-05-23T09:06:49;20.60;92.00
51867;DHT22;52862;52.504;13.480;2023-05-23T09:09:16;20.50;92.30
51867;DHT22;52862;52.504;13.480;2023-05-23T09:11:43;20.40;92.60
51867;DHT22;52862;52.504;13.480;2023-05-23T09:14:12;20.50;92.80
51867;DHT22;52862;52.504;13.480;2023-05-23T09:16:45;21.40;96.40
51867;DHT22;52862;52.504;13.480;2023-05-23T09:19:13;21.10;92.30
51867;DHT22;52862;52.504;13.480;2023-05-23T09:21:44;21.30;92.40
51867;DHT22;52862;52.504;13.480;2023-05-23T09:24:11;21.60;92.40
51867;DHT22;52862;52.504;13.480;2023-05-23T09:26:38;21.70;92.70
51867;DHT22;52862;52.504;13.480;2023-05-23T09:29:07;21.90;92.70
51867;DHT22;52862;52.504;13.480;2023-05-23T09:31:36;21.70;92.60
51867;DHT22;52862;52.504;13.480;2023-05-23T09:34:03;21.80;92.80
51867;DHT22;52862;52.504;13.480;2023-05-23T09:36:32;21.80;93.00
51867;DHT22;52862;52.504;13.480;2023-05-23T09:39:02;22.00;92.90
51867;DHT22;52862;52.504;13.480;2023-05-23T09:41:32;21.90;93.20
51867;DHT22;52862;52.504;13.480;2023-05-23T09:44:04;21.90;93.20
51867;DHT22;52862;52.504;13.480;2023-05-23T09:46:34;22.40;93.10
51867;DHT22;52862;52.504;13.480;2023-05-23T09:49:02;22.50;93.50
51867;DHT22;52862;52.504;13.480;2023-05-23T09:51:29;22.40;93.80
51867;DHT22;52862;52.504;13.480;2023-05-23T09:53:56;22.30;93.80
51867;DHT22;52862;52.504;13.480;2023-05-23T09:56:23;22.30;94.30
51867;DHT22;52862;52.504;13.480;2023-05-23T09:58:53;22.30;94.30
51867;DHT22;52862;52.504;13.480;2023-05-23T10:01:22;22.30;94.60
51867;DHT22;52862;52.504;13.480;2023-05-23T10:03:52;22.60;94.60
51867;DHT22;52862;52.504;13.480;2023-05-23T10:06:25;22.90;94.20
51867;DHT22;52862;52.504;13.480;2023-05-23T10:08:55;22.60;94.40
51867;DHT22;52862;52.504;13.480;2023-05-23T10:14:53;21.70;94.80
51867;DHT22;52862;52.504;13.480;2023-05-23T10:17:25;22.40;95.10
51867;DHT22;52862;52.504;13.480;2023-05-23T10:19:59;22.60;95.10
51867;DHT22;52862;52.504;13.480;2023-05-23T10:22:34;22.60;95.00
51867;DHT22;52862;52.504;13.480;2023-05-23T10:25:02;22.60;95.10
51867;DHT22;52862;52.504;13.480;2023-05-23T10:27:29;22.60;94.90
51867;DHT22;52862;52.504;13.480;2023-05-23T10:29:56;22.10;94.90
51867;DHT22;52862;52.504;13.480;2023-05-23T10:32:25;22.20;94.90
51867;DHT22;52862;52.504;13.480;2023-05-23T10:34:58;22.10;94.80
51867;DHT22;52862;52.504;13.480;2023-05-23T10:37:30;22.40;95.10
51867;DHT22;52862;52.504;13.480;2023-05-23T10:40:02;22.40;95.50
51867;DHT22;52862;52.504;13.480;2023-05-23T10:42:40;22.50;95.80
51867;DHT22;52862;52.504;13.480;2023-05-23T10:45:16;22.00;96.50
51867;DHT22;52862;52.504;13.480;2023-05-23T10:47:45;22.00;96.60
51867;DHT22;52862;52.504;13.480;2023-05-23T10:50:13;22.50;96.90
51867;DHT22;52862;52.504;13.480;2023-05-23T10:52:42;22.80;96.00
51867;DHT22;52862;52.504;13.480;2023-05-23T10:55:13;22.60;96.50
51867;DHT22;52862;52.504;13.480;2023-05-23T10:57:40;22.30;97.20
51867;DHT22;52862;52.504;13.480;2023-05-23T11:00:13;22.30;97.40
51867;DHT22;52862;52.504;13.480;2023-05-23T11:02:52;22.30;99.00
51867;DHT22;52862;52.504;13.480;2023-05-23T11:05:21;22.00;99.90
51867;DHT22;52862;52.504;13.480;2023-05-23T11:08:09;21.70;99.90
51867;DHT22;52862;52.504;13.480;2023-05-23T11:10:54;21.60;99.90
51867;DHT22;52862;52.504;13.480;2023-05-23T11:13:22;21.50;99.90
51867;DHT22;52862;52.504;13.480;2023-05-23T11:15:50;21.20;99.90
51867;DHT22;52862;52.504;13.480;2023-05-23T11:18:33;21.30;99.90
51867;DHT22;52862;52.504;13.480;2023-05-23T11:21:04;21.20;99.90
51867;DHT22;52862;52.504;13.480;2023-05-23T11:23:39;21.10;99.90
51867;DHT22;52862;52.504;13.480;2023-05-23T11:26:28;21.00;99.90
51867;DHT22;52862;52.504;13.480;2023-05-23T11:28:55;21.10;99.90
51867;DHT22;52862;52.504;13.480;2023-05-23T11:31:24;21.20;99.90
51867;DHT22;52862;52.504;13.480;2023-05-23T11:33:52;21.30;99.90
51867;DHT22;52862;52.504;13.480;2023-05-23T11:36:20;21.20;99.90
51867;DHT22;52862;52.504;13.480;2023-05-23T11:38:51;21.00;99.90
51867;DHT22;52862;52.504;13.480;2023-05-23T11:41:22;20.90;99.90
51867;DHT22;52862;52.504;13.480;2023-05-23T11:43:52;20.80;99.90
51867;DHT22;52862;52.504;13.480;2023-05-23T11:46:22;20.90;99.90
51867;DHT22;52862;52.504;13.480;2023-05-23T11:48:55;23.50;99.90
51867;DHT22;52862;52.504;13.480;2023-05-23T11:51:24;21.10;99.90
51867;DHT22;52862;52.504;13.480;2023-05-23T11:53:53;20.80;99.90
51867;DHT22;52862;52.504;13.480;2023-05-23T11:56:23;20.60;99.90
51867;DHT22;52862;52.504;13.480;2023-05-23T11:58:51;20.50;99.90
51867;DHT22;52862;52.504;13.480;2023-05-23T12:01:28;20.50;99.90
51867;DHT22;52862;52.504;13.480;2023-05-23T12:03:58;20.50;99.90
51867;DHT22;52862;52.504;13.480;2023-05-23T12:06:28;20.40;99.90
51867;DHT22;52862;52.504;13.480;2023-05-23T12:08:59;19.80;99.90
51867;DHT22;52862;52.504;13.480;2023-05-23T12:11:30;20.20;99.90
51867;DHT22;52862;52.504;13.480;2023-05-23T12:13:58;20.10;99.90
51867;DHT22;52862;52.504;13.480;2023-05-23T12:16:29;20.10;99.90
51867;DHT22;52862;52.504;13.480;2023-05-23T12:18:57;19.90;99.90
51867;DHT22;52862;52.504;13.480;2023-05-23T12:21:25;19.80;99.90
51867;DHT22;52862;52.504;13.480;2023-05-23T12:24:34;20.10;99.90
51867;DHT22;52862;52.504;13.480;2023-05-23T12:27:04;20.50;99.90
51867;DHT22;52862;52.504;13.480;2023-05-23T12:29:33;20.40;99.90
51867;DHT22;52862;52.504;13.480;2023-05-23T12:32:02;20.50;99.90
51867;DHT22;52862;52.504;13.480;2023-05-23T12:34:30;20.50;99.90
51867;DHT22;52862;52.504;13.480;2023-05-23T12:37:00;20.90;99.90
51867;DHT22;52862;52.504;13.480;2023-05-23T12:39:45;20.70;99.90
51867;DHT22;52862;52.504;13.480;2023-05-23T12:42:13;20.60;99.90
51867;DHT22;52862;52.504;13.480;2023-05-23T12:45:12;20.70;99.90
51867;DHT22;52862;52.504;13.480;2023-05-23T12:47:43;20.50;99.90
51867;DHT22;52862;52.504;13.480;2023-05-23T12:50:11;20.60;99.90
51867;DHT22;52862;52.504;13.480;2023-05-23T12:52:39;20.30;99.90
51867;DHT22;52862;52.504;13.480;2023-05-23T12:55:08;20.00;99.90
51867;DHT22;52862;52.504;13.480;2023-05-23T12:57:36;20.00;99.90
51867;DHT22;52862;52.504;13.480;2023-05-23T13:00:04;19.90;99.90
51867;DHT22;52862;52.504;13.480;2023-05-23T13:02:32;19.70;99.90
51867;DHT22;52862;52.504;13.480;2023-05-23T13:04:59;19.80;99.90
51867;DHT22;52862;52.504;13.480;2023-05-23T13:07:28;19.50;99.90
51867;DHT22;52862;52.504;13.480;2023-05-23T13:09:56;20.90;99.90
51867;DHT22;52862;52.504;13.480;2023-05-23T13:12:23;19.20;99.90
51867;DHT22;52862;52.504;13.480;2023-05-23T13:14:51;19.00;99.90
51867;DHT22;52862;52.504;13.480;2023-05-23T13:17:18;19.20;99.90
51867;DHT22;52862;52.504;13.480;2023-05-23T13:19:46;19.30;99.90
51867;DHT22;52862;52.504;13.480;2023-05-23T13:22:13;19.50;99.90
51867;DHT22;52862;52.504;13.480;2023-05-23T13:24:40;19.50;99.90
51867;DHT22;52862;52.504;13.480;2023-05-23T13:27:08;19.80;99.90
51867;DHT22;52862;52.504;13.480;2023-05-23T13:29:35;19.60;99.90
51867;DHT22;52862;52.504;13.480;2023-05-23T13:32:03;19.00;99.90
51867;DHT22;52862;52.504;13.480;2023-05-23T13:34:30;19.40;99.90
51867;DHT22;52862;52.504;13.480;2023-05-23T13:36:57;19.20;99.90
51867;DHT22;52862;52.504;13.480;2023-05-23T13:39:23;19.10;99.90
51867;DHT22;52862;52.504;13.480;2023-05-23T13:41:50;19.20;99.90
51867;DHT22;52862;52.504;13.480;2023-05-23T13:44:17;18.90;99.90
51867;DHT22;52862;52.504;13.480;2023-05-23T13:46:43;18.80;99.90
51867;DHT22;52862;52.504;13.480;2023-05-23T13:49:11;18.50;99.90
51867;DHT22;52862;52.504;13.480;2023-05-23T13:51:38;18.50;99.90
51867;DHT22;52862;52.504;13.480;2023-05-23T13:54:05;18.60;99.90
51867;DHT22;52862;52.504;13.480;2023-05-23T13:56:31;18.60;99.90
51867;DHT22;52862;52.504;13.480;2023-05-23T13:58:59;18.50;99.90
51867;DHT22;52862;52.504;13.480;2023-05-23T14:01:25;18.30;99.90
51867;DHT22;52862;52.504;13.480;2023-05-23T14:03:52;17.90;99.90
51867;DHT22;52862;52.504;13.480;2023-05-23T14:06:20;18.30;99.90
51867;DHT22;52862;52.504;13.480;2023-05-23T14:08:47;18.40;99.90
51867;DHT22;52862;52.504;13.480;2023-05-23T14:11:13;18.60;99.90
51867;DHT22;52862;52.504;13.480;2023-05-23T14:13:40;18.60;99.90
51867;DHT22;52862;52.504;13.480;2023-05-23T14:16:07;18.80;99.90
51867;DHT22;52862;52.504;13.480;2023-05-23T14:18:34;18.90;99.90
51867;DHT22;52862;52.504;13.480;2023-05-23T14:21:00;18.50;99.90
51867;DHT22;52862;52.504;13.480;2023-05-23T14:23:28;18.40;99.90
51867;DHT22;52862;52.504;13.480;2023-05-23T14:25:54;18.20;99.90
51867;DHT22;52862;52.504;13.480;2023-05-23T14:28:21;18.30;99.90
51867;DHT22;52862;52.504;13.480;2023-05-23T14:30:48;18.30;99.90
51867;DHT22;52862;52.504;13.480;2023-05-23T14:33:15;18.30;99.90
51867;DHT22;52862;52.504;13.480;2023-05-23T14:35:41;18.30;99.90
51867;DHT22;52862;52.504;13.480;2023-05-23T14:38:09;18.20;99.90
51867;DHT22;52862;52.504;13.480;2023-05-23T14:40:36;17.90;99.90
51867;DHT22;52862;52.504;13.480;2023-05-23T14:43:03;17.80;99.90
51867;DHT22;52862;52.504;13.480;2023-05-23T14:45:30;18.00;99.90
51867;DHT22;52862;52.504;13.480;2023-05-23T14:47:56;17.90;99.90
51867;DHT22;52862;52.504;13.480;2023-05-23T14:50:25;17.80;99.90
51867;DHT22;52862;52.504;13.480;2023-05-23T14:52:51;17.50;99.90
51867;DHT22;52862;52.504;13.480;2023-05-23T14:55:18;17.80;99.90
51867;DHT22;52862;52.504;13.480;2023-05-23T14:57:46;17.90;99.90
51867;DHT22;52862;52.504;13.480;2023-05-23T15:00:13;17.90;99.90
51867;DHT22;52862;52.504;13.480;2023-05-23T15:05:08;17.60;99.90
51867;DHT22;52862;52.504;13.480;2023-05-23T15:07:34;17.70;99.90
51867;DHT22;52862;52.504;13.480;2023-05-23T15:10:04;17.80;99.90
51867;DHT22;52862;52.504;13.480;2023-05-23T15:12:31;17.70;99.90
51867;DHT22;52862;52.504;13.480;2023-05-23T15:14:59;17.50;99.90
51867;DHT22;52862;52.504;13.480;2023-05-23T15:17:28;17.20;99.90
51867;DHT22;52862;52.504;13.480;2023-05-23T15:22:23;16.70;99.90
51867;DHT22;52862;52.504;13.480;2023-05-23T15:25:06;16.60;99.90
51867;DHT22;52862;52.504;13.480;2023-05-23T15:27:33;16.50;99.90
51867;DHT22;52862;52.504;13.480;2023-05-23T15:30:00;16.50;99.90
51867;DHT22;52862;52.504;13.480;2023-05-23T15:32:28;16.40;99.90